Time;durP1;ratioP1;P1;durP2;ratioP2;P2;SDS_P1;SDS_P2;PMS_P1;PMS_P2;Temp;Humidity;BMP_temperature;BMP_pressure;BME280_temperature;BME280_humidity;BME280_pressure;Samples;Min_cycle;Max_cycle;Signal;HPM_P1;HPM_P2
2021/04/11 00:00:35;;;;;;;4.93;3.95;;;4.40;90.00;;;;;;5035752;28;20507;-68
2021/04/11 00:03:06;;;;;;;4.68;3.70;;;4.40;90.00;;;;;;5035310;28;20030;-69
2021/04/11 00:05:38;;;;;;;3.88;3.47;;;4.40;90.00;;;;;;5035390;28;20025;-68
2021/04/11 00:08:06;;;;;;;3.60;3.30;;;4.40;90.00;;;;;;5035255;28;20465;-68
2021/04/11 00:10:34;;;;;;;4.18;3.78;;;4.40;90.30;;;;;;5035301;28;20407;-68
2021/04/11 00:13:01;;;;;;;5.03;3.97;;;4.40;90.00;;;;;;5033762;28;20040;-68
2021/04/11 00:15:27;;;;;;;3.83;3.42;;;4.40;90.10;;;;;;5035150;28;20433;-68
2021/04/11 00:17:53;;;;;;;4.22;3.00;;;4.30;90.00;;;;;;5035082;28;20048;-68
2021/04/11 00:20:19;;;;;;;4.57;3.60;;;4.30;90.00;;;;;;5035090;28;20409;-68
2021/04/11 00:22:45;;;;;;;4.05;3.47;;;4.30;90.10;;;;;;5033658;28;20444;-68
2021/04/11 00:25:18;;;;;;;3.90;3.40;;;4.30;90.10;;;;;;5034922;28;20064;-68
2021/04/11 00:27:44;;;;;;;4.18;3.58;;;4.30;90.30;;;;;;5033603;28;20139;-68
2021/04/11 00:30:11;;;;;;;4.47;3.58;;;4.30;90.30;;;;;;5034879;28;20123;-68
2021/04/11 00:32:38;;;;;;;3.45;3.15;;;4.30;90.00;;;;;;5034862;28;20156;-68
2021/04/11 00:35:05;;;;;;;4.18;3.40;;;4.30;90.00;;;;;;5033684;28;20030;-68
2021/04/11 00:37:30;;;;;;;3.38;3.08;;;4.30;90.00;;;;;;5033455;28;20052;-68
2021/04/11 00:39:56;;;;;;;3.90;3.47;;;4.30;90.00;;;;;;5033486;28;20025;-68
2021/04/11 00:42:52;;;;;;;4.05;3.58;;;4.30;90.00;;;;;;5034571;28;20029;-68
2021/04/11 00:45:46;;;;;;;5.22;3.50;;;4.30;90.00;;;;;;5033033;28;20518;-68
2021/04/11 00:48:14;;;;;;;4.55;3.63;;;4.30;90.00;;;;;;5034373;28;20041;-68
2021/04/11 00:50:48;;;;;;;3.35;3.05;;;4.20;90.00;;;;;;5034570;28;20108;-68
2021/04/11 00:53:13;;;;;;;3.33;3.03;;;4.20;89.90;;;;;;5033580;28;20071;-68
2021/04/11 00:55:39;;;;;;;3.58;3.20;;;4.20;90.00;;;;;;5033229;28;20053;-68
2021/04/11 00:58:05;;;;;;;4.45;3.38;;;4.20;90.10;;;;;;5033014;28;20022;-68
2021/04/11 01:00:33;;;;;;;3.60;3.17;;;4.30;89.90;;;;;;5034328;28;20021;-68
2021/04/11 01:02:59;;;;;;;3.67;3.17;;;4.30;89.90;;;;;;5032953;28;20591;-68
2021/04/11 01:05:30;;;;;;;3.33;3.03;;;4.30;89.90;;;;;;5032930;28;20029;-68
2021/04/11 01:07:56;;;;;;;4.25;3.75;;;4.30;89.90;;;;;;5034443;28;20021;-68
2021/04/11 01:10:30;;;;;;;3.40;3.10;;;4.20;89.70;;;;;;5034194;28;20096;-68
2021/04/11 01:12:56;;;;;;;3.13;2.83;;;4.30;89.80;;;;;;5032706;28;20025;-68
2021/04/11 01:15:29;;;;;;;4.78;3.97;;;4.30;89.70;;;;;;5033943;28;20029;-68
2021/04/11 01:17:56;;;;;;;4.90;3.80;;;4.30;89.60;;;;;;5034492;28;20033;-68
2021/04/11 01:20:23;;;;;;;4.32;3.70;;;4.20;89.50;;;;;;5033810;28;20537;-68
2021/04/11 01:23:18;;;;;;;3.95;3.55;;;4.20;89.50;;;;;;5032366;28;20441;-68
2021/04/11 01:25:45;;;;;;;4.15;3.17;;;4.10;89.50;;;;;;4997211;28;20037;-68
2021/04/11 01:28:17;;;;;;;3.50;3.20;;;4.10;89.60;;;;;;5032354;28;20025;-68
2021/04/11 01:30:45;;;;;;;4.60;3.92;;;4.10;89.50;;;;;;5033764;28;20028;-68
2021/04/11 01:33:16;;;;;;;4.38;3.85;;;4.10;89.60;;;;;;5032368;28;20022;-68
2021/04/11 01:35:42;;;;;;;5.38;4.00;;;4.10;89.50;;;;;;5032265;28;20036;-68
2021/04/11 01:38:12;;;;;;;4.68;4.18;;;4.10;89.70;;;;;;5032243;28;20116;-68
2021/04/11 01:40:58;;;;;;;4.63;4.00;;;4.10;89.60;;;;;;5033495;28;20030;-68
2021/04/11 01:43:24;;;;;;;5.13;4.03;;;4.10;89.70;;;;;;5033622;28;20029;-68
2021/04/11 01:45:50;;;;;;;4.70;3.53;;;4.00;89.50;;;;;;5032006;28;20382;-68
2021/04/11 01:48:17;;;;;;;3.55;3.20;;;4.00;89.70;;;;;;5031904;28;20026;-68
2021/04/11 01:50:45;;;;;;;4.20;3.63;;;4.00;89.60;;;;;;5033318;28;20497;-68
2021/04/11 01:53:12;;;;;;;4.32;2.92;;;4.10;89.70;;;;;;5033343;28;20025;-68
2021/04/11 01:55:39;;;;;;;4.65;3.53;;;4.10;89.50;;;;;;5032082;28;20076;-68
2021/04/11 01:58:05;;;;;;;4.28;3.58;;;4.10;89.50;;;;;;5033145;28;20037;-68
2021/04/11 02:00:42;;;;;;;4.45;3.85;;;4.10;89.50;;;;;;5033357;28;20029;-68
2021/04/11 02:03:15;;;;;;;4.05;3.40;;;4.10;89.60;;;;;;5033166;28;20029;-68
2021/04/11 02:05:42;;;;;;;3.70;3.20;;;4.10;89.50;;;;;;5031811;28;20025;-68
2021/04/11 02:08:13;;;;;;;3.38;3.08;;;4.10;89.50;;;;;;5032990;28;20583;-68
2021/04/11 02:10:44;;;;;;;3.03;2.72;;;4.10;89.70;;;;;;5031861;28;20026;-68
2021/04/11 02:13:11;;;;;;;3.67;3.00;;;4.10;89.50;;;;;;5031697;28;20030;-68
2021/04/11 02:15:42;;;;;;;4.35;3.67;;;4.10;89.70;;;;;;5033095;28;20036;-68
2021/04/11 02:18:11;;;;;;;4.07;3.58;;;4.10;89.80;;;;;;5032934;28;20026;-68
2021/04/11 02:20:36;;;;;;;3.83;3.42;;;4.10;89.70;;;;;;5032950;28;20549;-68
2021/04/11 02:23:03;;;;;;;4.60;3.33;;;4.10;89.80;;;;;;5031333;28;20112;-68
2021/04/11 02:25:32;;;;;;;3.67;2.95;;;4.10;89.80;;;;;;5031561;28;20029;-68
2021/04/11 02:28:00;;;;;;;3.63;3.10;;;4.10;89.90;;;;;;5031576;28;20058;-68
2021/04/11 02:30:27;;;;;;;3.15;2.83;;;4.10;89.70;;;;;;5032788;28;20041;-68
2021/04/11 02:32:56;;;;;;;3.70;2.72;;;4.10;89.80;;;;;;5031427;28;20021;-69
2021/04/11 02:35:25;;;;;;;3.92;3.03;;;4.10;89.70;;;;;;5031413;28;20460;-68
2021/04/11 02:37:56;;;;;;;5.18;3.40;;;4.10;89.90;;;;;;5032756;28;20484;-68
2021/04/11 02:40:36;;;;;;;5.55;3.20;;;4.10;89.70;;;;;;5032657;28;20034;-68
2021/04/11 02:43:03;;;;;;;4.15;3.70;;;4.10;89.80;;;;;;5032633;28;20033;-68
2021/04/11 02:45:34;;;;;;;3.90;3.42;;;4.10;89.90;;;;;;5031405;28;20098;-68
2021/04/11 02:48:03;;;;;;;5.72;4.00;;;4.10;90.00;;;;;;5031117;28;20032;-68
2021/04/11 02:50:31;;;;;;;4.22;3.47;;;4.10;90.10;;;;;;5031342;28;20029;-68
2021/04/11 02:53:03;;;;;;;3.90;3.10;;;4.10;90.00;;;;;;5032699;28;20034;-68
2021/04/11 02:55:33;;;;;;;3.35;3.05;;;4.10;90.00;;;;;;5032647;28;20033;-68
2021/04/11 02:57:59;;;;;;;4.03;3.00;;;4.10;90.10;;;;;;5031232;28;20021;-70
2021/04/11 03:00:28;;;;;;;2.65;2.45;;;4.10;90.00;;;;;;5031203;28;20116;-68
2021/04/11 03:02:53;;;;;;;3.85;3.40;;;4.10;90.00;;;;;;5032544;28;20061;-68
2021/04/11 03:05:22;;;;;;;3.85;2.88;;;4.10;90.00;;;;;;5031102;28;20084;-68
2021/04/11 03:08:16;;;;;;;3.10;2.80;;;4.10;90.00;;;;;;5032395;28;20028;-68
2021/04/11 03:10:54;;;;;;;;;;;4.20;90.00;;;;;;5028665;28;20041;-68
2021/04/11 03:13:21;;;;;;;3.40;2.53;;;4.20;90.00;;;;;;5032478;28;20357;-68
2021/04/11 03:15:48;;;;;;;2.47;2.20;;;4.20;90.00;;;;;;5032225;28;20032;-68
2021/04/11 03:18:15;;;;;;;2.45;1.85;;;4.20;89.90;;;;;;5034989;28;20017;-69
2021/04/11 03:20:42;;;;;;;2.13;1.92;;;4.30;89.90;;;;;;5034802;28;20385;-68
2021/04/11 03:23:10;;;;;;;2.38;2.17;;;4.30;89.90;;;;;;5036599;28;20042;-68
2021/04/11 03:25:39;;;;;;;2.00;1.70;;;4.30;90.00;;;;;;5036320;28;20385;-68
2021/04/11 03:28:22;;;;;;;1.88;1.77;;;4.30;89.90;;;;;;5035927;28;20022;-68
2021/04/11 03:31:01;;;;;;;2.20;1.70;;;4.30;89.80;;;;;;5034805;28;20492;-68
2021/04/11 03:33:27;;;;;;;1.73;1.40;;;4.20;89.90;;;;;;5036015;28;20091;-68
2021/04/11 03:35:53;;;;;;;1.20;1.15;;;4.20;89.80;;;;;;5034626;28;20496;-68
2021/04/11 03:38:25;;;;;;;1.48;1.35;;;4.20;89.90;;;;;;5034621;28;20021;-68
2021/04/11 03:40:57;;;;;;;2.17;1.35;;;4.20;89.80;;;;;;5034556;28;20112;-68
2021/04/11 03:43:34;;;;;;;1.45;1.30;;;4.20;89.90;;;;;;5034468;28;20021;-68
2021/04/11 03:46:08;;;;;;;1.30;1.20;;;4.20;89.70;;;;;;5035785;28;20057;-68
2021/04/11 03:48:43;;;;;;;1.23;1.20;;;4.20;89.70;;;;;;5034394;28;20026;-68
2021/04/11 03:51:27;;;;;;;1.02;1.02;;;4.20;89.60;;;;;;5034846;28;20021;-68
2021/04/11 03:54:15;;;;;;;1.20;1.10;;;4.20;89.70;;;;;;5036012;28;20026;-68
2021/04/11 03:57:12;;;;;;;1.30;1.20;;;4.20;89.70;;;;;;5035605;28;20013;-68
2021/04/11 03:59:46;;;;;;;1.35;1.25;;;4.30;89.80;;;;;;5031172;28;20566;-68
2021/04/11 04:02:15;;;;;;;1.55;1.45;;;4.30;89.80;;;;;;5035454;28;20083;-68
2021/04/11 04:04:42;;;;;;;1.50;1.20;;;4.30;89.70;;;;;;5034148;28;20477;-68
2021/04/11 04:07:14;;;;;;;1.40;1.30;;;4.30;89.60;;;;;;5035356;28;20108;-68
2021/04/11 04:09:43;;;;;;;1.35;1.25;;;4.30;89.50;;;;;;5035340;28;20380;-68
2021/04/11 04:12:26;;;;;;;1.55;1.30;;;4.40;89.50;;;;;;5035397;28;20071;-68
2021/04/11 04:15:03;;;;;;;1.50;1.40;;;4.40;89.50;;;;;;5035232;28;20021;-68
2021/04/11 04:17:37;;;;;;;2.38;1.40;;;4.30;89.40;;;;;;5035230;28;20025;-68
2021/04/11 04:20:39;;;;;;;1.20;1.10;;;4.30;89.30;;;;;;5033781;28;20040;-68
2021/04/11 04:23:21;;;;;;;1.30;1.20;;;4.30;89.40;;;;;;5030659;28;20041;-68
2021/04/11 04:26:02;;;;;;;1.30;1.20;;;4.30;89.40;;;;;;5035056;28;20022;-68
2021/04/11 04:28:43;;;;;;;2.05;1.20;;;4.40;89.50;;;;;;5033592;28;20025;-69
2021/04/11 04:31:24;;;;;;;1.63;1.13;;;4.40;89.40;;;;;;5033550;28;20361;-68
2021/04/11 04:33:55;;;;;;;1.50;1.40;;;4.40;89.30;;;;;;5034728;28;20112;-68
2021/04/11 04:36:36;;;;;;;1.50;1.40;;;4.40;89.40;;;;;;5033400;28;20021;-68
2021/04/11 04:39:17;;;;;;;0.95;0.90;;;4.40;89.40;;;;;;5033379;28;20034;-68
2021/04/11 04:42:10;;;;;;;1.40;1.30;;;4.40;89.30;;;;;;5033401;28;20501;-68
2021/04/11 04:44:51;;;;;;;0.90;0.90;;;4.40;89.40;;;;;;5035102;28;20377;-68
2021/04/11 04:47:32;;;;;;;1.30;1.20;;;4.40;89.20;;;;;;5033228;28;20032;-67
2021/04/11 04:50:07;;;;;;;1.30;1.20;;;4.40;89.30;;;;;;5033057;28;20072;-68
2021/04/11 04:52:36;;;;;;;1.13;0.90;;;4.50;89.30;;;;;;5033303;28;20025;-68
2021/04/11 04:55:08;;;;;;;1.08;0.98;;;4.50;89.30;;;;;;5034516;28;20025;-68
2021/04/11 04:57:48;;;;;;;1.20;1.10;;;4.60;89.80;;;;;;5033073;28;20032;-68
2021/04/11 05:00:25;;;;;;;1.88;1.50;;;4.60;89.10;;;;;;5033122;28;20021;-68
2021/04/11 05:03:24;;;;;;;1.52;1.42;;;4.60;88.90;;;;;;5033091;28;20021;-68
2021/04/11 05:06:07;;;;;;;1.10;1.10;;;4.60;88.90;;;;;;5034296;28;20500;-68
2021/04/11 05:08:41;;;;;;;2.22;1.10;;;4.60;89.00;;;;;;5032721;28;20057;-68
2021/04/11 05:11:17;;;;;;;1.40;1.30;;;4.60;89.00;;;;;;5034050;28;20079;-68
2021/04/11 05:13:50;;;;;;;1.67;1.58;;;4.60;88.90;;;;;;5033171;28;20026;-68
2021/04/11 05:16:28;;;;;;;2.30;1.40;;;4.60;88.90;;;;;;5033990;28;20021;-68
2021/04/11 05:19:35;;;;;;;2.08;1.20;;;4.60;88.90;;;;;;5034231;28;20091;-68
2021/04/11 05:22:22;;;;;;;1.30;1.17;;;4.60;88.90;;;;;;5024074;28;20438;-69
2021/04/11 05:24:52;;;;;;;1.38;1.20;;;4.60;88.90;;;;;;5026263;28;20056;-68
2021/04/11 05:27:38;;;;;;;1.30;1.17;;;4.70;88.90;;;;;;5033781;28;20045;-68
2021/04/11 05:30:10;;;;;;;1.33;1.25;;;4.70;88.80;;;;;;5033635;28;20112;-69
2021/04/11 05:32:36;;;;;;;1.50;1.00;;;4.70;88.80;;;;;;5033791;28;20091;-68
2021/04/11 05:35:06;;;;;;;1.50;1.02;;;4.70;88.70;;;;;;5032157;28;20120;-68
2021/04/11 05:37:40;;;;;;;1.00;1.00;;;4.70;88.70;;;;;;5032386;28;20029;-68
2021/04/11 05:40:18;;;;;;;1.15;1.05;;;4.80;88.60;;;;;;5032972;28;20492;-68
2021/04/11 05:42:55;;;;;;;0.95;0.95;;;4.80;88.60;;;;;;5033351;28;20044;-68
2021/04/11 05:45:48;;;;;;;0.93;0.90;;;4.80;88.50;;;;;;5033125;28;20029;-68
2021/04/11 05:48:35;;;;;;;1.37;0.90;;;4.80;88.40;;;;;;5031850;28;20033;-68
2021/04/11 05:51:18;;;;;;;1.15;1.05;;;4.90;88.30;;;;;;5032926;28;20286;-68
2021/04/11 05:53:49;;;;;;;0.90;0.90;;;4.90;88.00;;;;;;5033232;28;20044;-68
2021/04/11 05:56:26;;;;;;;1.10;0.88;;;4.90;88.00;;;;;;5031667;28;20021;-68
2021/04/11 05:59:01;;;;;;;0.80;0.80;;;4.90;88.00;;;;;;5031681;28;20033;-68
2021/04/11 06:01:34;;;;;;;1.10;1.00;;;4.90;87.90;;;;;;5031787;28;20041;-69
2021/04/11 06:04:45;;;;;;;2.95;1.85;;;4.90;87.90;;;;;;5033246;28;20087;-68
2021/04/11 06:07:22;;;;;;;2.17;1.15;;;5.00;87.90;;;;;;4952668;29;20043;-68
2021/04/11 06:09:51;;;;;;;1.52;1.00;;;5.00;87.90;;;;;;4952730;29;20096;-68
2021/04/11 06:12:47;;;;;;;1.08;0.98;;;5.00;87.90;;;;;;4952798;29;20070;-69
2021/04/11 06:15:26;;;;;;;1.70;0.95;;;5.10;87.90;;;;;;4952560;29;20090;-68
2021/04/11 06:17:54;;;;;;;1.30;1.20;;;5.10;87.80;;;;;;4952965;29;20114;-68
2021/04/11 06:20:20;;;;;;;0.90;0.90;;;5.20;87.70;;;;;;4936471;29;20031;-69
2021/04/11 06:23:13;;;;;;;1.08;0.95;;;5.20;88.20;;;;;;4952461;29;20412;-68
2021/04/11 06:25:51;;;;;;;0.90;0.90;;;5.20;87.60;;;;;;4952751;29;20043;-68
2021/04/11 06:28:43;;;;;;;1.27;0.70;;;5.20;87.40;;;;;;4952391;29;20031;-68
2021/04/11 06:31:25;;;;;;;1.10;1.00;;;5.20;87.30;;;;;;4952420;29;20083;-68
2021/04/11 06:33:59;;;;;;;1.08;0.80;;;5.20;87.10;;;;;;4952598;29;20031;-68
2021/04/11 06:36:32;;;;;;;1.33;1.20;;;5.20;87.10;;;;;;4952694;29;20062;-68
2021/04/11 06:39:09;;;;;;;1.10;1.00;;;5.20;87.10;;;;;;5030877;28;20103;-69
2021/04/11 06:42:02;;;;;;;1.50;1.00;;;5.20;87.00;;;;;;5031132;28;20393;-68
2021/04/11 06:45:07;;;;;;;2.08;1.23;;;5.30;87.00;;;;;;5032394;28;20504;-68
2021/04/11 06:47:51;;;;;;;1.55;1.00;;;5.30;86.90;;;;;;4977436;28;20132;-69
2021/04/11 06:50:32;;;;;;;1.33;0.95;;;5.40;86.50;;;;;;5031284;28;20378;-68
2021/04/11 06:53:23;;;;;;;0.98;0.98;;;5.40;86.50;;;;;;5036730;28;20403;-68
2021/04/11 06:56:07;;;;;;;1.23;0.90;;;5.30;86.30;;;;;;5036622;28;20112;-68
2021/04/11 06:59:10;;;;;;;1.00;0.82;;;5.30;85.90;;;;;;5036646;28;20043;-68
2021/04/11 07:02:14;;;;;;;1.83;1.02;;;5.30;85.80;;;;;;5036300;28;20034;-68
2021/04/11 07:05:05;;;;;;;1.58;1.17;;;5.30;85.90;;;;;;5035073;28;20041;-69
2021/04/11 07:08:11;;;;;;;1.00;0.90;;;5.40;85.90;;;;;;5036091;28;20048;-68
2021/04/11 07:10:57;;;;;;;1.85;1.00;;;5.40;85.50;;;;;;5036365;28;20042;-68
2021/04/11 07:13:46;;;;;;;1.33;0.80;;;5.50;85.50;;;;;;5036080;28;20381;-68
2021/04/11 07:16:31;;;;;;;2.10;0.93;;;5.60;85.40;;;;;;5034688;28;20120;-68
2021/04/11 07:19:42;;;;;;;1.38;0.80;;;5.60;85.10;;;;;;5036314;28;20037;-68
2021/04/11 07:22:42;;;;;;;1.38;0.90;;;5.60;85.10;;;;;;5035905;28;20100;-68
2021/04/11 07:25:19;;;;;;;0.82;0.82;;;5.60;85.00;;;;;;5031788;28;20428;-68
2021/04/11 07:28:20;;;;;;;0.80;0.73;;;5.60;84.70;;;;;;5035800;28;20473;-68
2021/04/11 07:31:21;;;;;;;1.20;0.93;;;5.70;84.60;;;;;;5034485;28;20045;-69
2021/04/11 07:34:02;;;;;;;1.90;1.33;;;5.70;84.50;;;;;;4955365;28;20135;-68
2021/04/11 07:36:42;;;;;;;0.82;0.80;;;5.80;84.50;;;;;;4939393;29;20443;-68
2021/04/11 07:39:28;;;;;;;1.73;0.93;;;5.90;83.90;;;;;;4955108;29;20039;-68
2021/04/11 07:42:22;;;;;;;3.70;2.40;;;5.90;83.70;;;;;;4955371;29;20088;-68
2021/04/11 07:45:01;;;;;;;1.48;1.10;;;5.90;83.90;;;;;;4939043;29;20074;-68
2021/04/11 07:47:35;;;;;;;2.42;1.15;;;5.80;83.50;;;;;;4955299;29;20475;-68
2021/04/11 07:50:25;;;;;;;2.47;1.20;;;5.70;83.40;;;;;;4955091;29;20370;-68
2021/04/11 07:52:59;;;;;;;1.20;1.10;;;5.60;83.60;;;;;;4955218;29;20063;-68
2021/04/11 07:55:45;;;;;;;2.40;1.05;;;5.50;83.80;;;;;;4955245;29;20049;-68
2021/04/11 07:59:12;;;;;;;1.80;1.13;;;5.60;84.00;;;;;;4939149;29;20023;-69
2021/04/11 08:02:01;;;;;;;1.20;1.00;;;5.60;83.90;;;;;;4898125;29;20039;-68
2021/04/11 08:04:32;;;;;;;2.60;1.50;;;5.60;83.60;;;;;;4898140;29;20614;-68
2021/04/11 08:07:17;;;;;;;2.00;1.40;;;5.50;83.50;;;;;;4882247;29;20044;-68
2021/04/11 08:10:05;;;;;;;3.03;1.30;;;5.50;83.70;;;;;;4925070;29;20511;-68
2021/04/11 08:12:52;;;;;;;1.33;0.90;;;5.60;83.90;;;;;;4948972;29;20166;-69
2021/04/11 08:15:19;;;;;;;1.33;1.10;;;5.60;83.90;;;;;;4954914;29;20179;-68
2021/04/11 08:18:20;;;;;;;2.85;1.05;;;5.70;83.80;;;;;;4954775;29;20042;-68
2021/04/11 08:21:03;;;;;;;1.83;0.93;;;5.60;83.70;;;;;;4954677;29;20035;-69
2021/04/11 08:23:58;;;;;;;2.15;1.10;;;5.70;83.70;;;;;;4938899;29;20044;-69
2021/04/11 08:26:40;;;;;;;2.70;1.20;;;5.60;83.30;;;;;;4954601;29;20051;-69
2021/04/11 08:29:29;;;;;;;2.63;1.10;;;5.60;83.20;;;;;;4954616;29;20542;-68
2021/04/11 08:32:13;;;;;;;1.00;1.00;;;5.70;83.50;;;;;;4991840;28;20053;-68
2021/04/11 08:34:48;;;;;;;;;;;5.70;83.20;;;;;;5035330;28;20026;-68
2021/04/11 08:37:40;;;;;;;2.25;1.10;;;5.70;83.40;;;;;;5034702;28;19909;-69
2021/04/11 08:40:23;;;;;;;2.10;0.90;;;5.70;83.20;;;;;;5034710;28;20026;-68
2021/04/11 08:43:13;;;;;;;2.38;1.00;;;5.80;83.20;;;;;;5034670;28;20039;-68
2021/04/11 08:45:59;;;;;;;1.45;0.90;;;5.80;82.90;;;;;;5034667;28;20040;-69
2021/04/11 08:48:48;;;;;;;1.50;1.00;;;6.10;82.90;;;;;;5033079;28;20068;-70
2021/04/11 08:51:37;;;;;;;2.42;1.15;;;6.10;82.10;;;;;;5034524;28;20033;-69
2021/04/11 08:54:05;;;;;;;1.17;1.08;;;6.10;81.90;;;;;;5034414;28;20435;-69
2021/04/11 08:56:44;;;;;;;4.80;1.20;;;6.20;82.30;;;;;;5034565;28;20026;-69
2021/04/11 08:59:43;;;;;;;1.35;1.20;;;6.30;81.00;;;;;;5032898;28;20037;-69
2021/04/11 09:02:27;;;;;;;3.13;1.08;;;6.30;81.30;;;;;;5032994;28;20120;-69
2021/04/11 09:05:04;;;;;;;3.25;1.10;;;6.30;81.30;;;;;;5034204;28;20036;-69
2021/04/11 09:07:56;;;;;;;2.15;1.10;;;6.40;81.20;;;;;;5034024;28;20028;-70
2021/04/11 09:10:43;;;;;;;2.95;1.50;;;6.30;81.10;;;;;;5034102;28;20040;-68
2021/04/11 09:13:26;;;;;;;4.45;1.52;;;6.30;81.10;;;;;;5033400;28;20366;-68
2021/04/11 09:16:16;;;;;;;1.50;1.20;;;6.30;81.20;;;;;;5033851;28;20065;-69
2021/04/11 09:18:51;;;;;;;3.10;1.42;;;6.40;81.10;;;;;;5033809;28;20124;-69
2021/04/11 09:21:36;;;;;;;3.67;1.45;;;6.40;81.10;;;;;;5032517;28;20036;-69
2021/04/11 09:24:18;;;;;;;2.63;1.10;;;6.50;81.00;;;;;;5033361;28;20029;-69
2021/04/11 09:27:06;;;;;;;3.53;1.58;;;6.70;80.90;;;;;;5032253;28;20029;-69
2021/04/11 09:29:40;;;;;;;2.33;1.48;;;6.80;80.30;;;;;;5033468;28;20029;-69
2021/04/11 09:32:27;;;;;;;5.50;1.80;;;6.90;80.30;;;;;;5032374;28;20116;-69
2021/04/11 09:35:11;;;;;;;2.08;1.10;;;7.10;80.10;;;;;;5033314;28;20029;-70
2021/04/11 09:38:06;;;;;;;2.42;1.10;;;7.20;79.10;;;;;;5033769;28;20032;-70
2021/04/11 09:40:57;;;;;;;1.30;1.10;;;7.20;78.90;;;;;;5032063;28;20022;-69
2021/04/11 09:43:28;;;;;;;1.52;1.13;;;7.20;79.00;;;;;;5033382;28;20032;-70
2021/04/11 09:46:08;;;;;;;1.00;0.80;;;7.30;78.50;;;;;;5033144;28;20029;-70
2021/04/11 09:48:59;;;;;;;1.33;0.90;;;7.30;78.50;;;;;;5033395;28;20049;-70
2021/04/11 09:51:40;;;;;;;3.65;2.00;;;7.30;77.90;;;;;;5032922;28;20029;-70
2021/04/11 09:54:18;;;;;;;5.47;3.30;;;7.40;78.40;;;;;;5032554;28;20060;-70
2021/04/11 09:56:52;;;;;;;4.07;1.88;;;7.50;78.00;;;;;;5032978;28;20025;-70
2021/04/11 09:59:24;;;;;;;4.10;2.78;;;7.50;77.90;;;;;;5031661;28;20507;-70
2021/04/11 10:02:01;;;;;;;1.83;1.27;;;7.60;76.00;;;;;;5033258;28;20036;-70
2021/04/11 10:05:00;;;;;;;2.67;0.95;;;7.50;76.00;;;;;;5033001;28;20036;-69
2021/04/11 10:07:43;;;;;;;4.40;2.83;;;7.40;75.20;;;;;;5032815;28;20029;-69
2021/04/11 10:10:20;;;;;;;2.80;1.65;;;7.30;76.20;;;;;;5033012;28;20025;-69
2021/04/11 10:12:55;;;;;;;1.85;1.60;;;7.30;76.20;;;;;;5032956;28;20026;-70
2021/04/11 10:15:47;;;;;;;1.40;1.25;;;7.30;76.50;;;;;;5033058;28;20017;-69
2021/04/11 10:18:31;;;;;;;4.07;2.47;;;7.40;75.90;;;;;;5019007;28;20420;-70
2021/04/11 10:21:25;;;;;;;3.58;2.35;;;7.30;76.00;;;;;;5032579;28;20057;-69
2021/04/11 10:24:08;;;;;;;2.17;1.33;;;7.40;76.30;;;;;;5032403;28;20068;-70
2021/04/11 10:26:42;;;;;;;1.90;1.27;;;7.40;75.50;;;;;;5032531;28;20025;-70
2021/04/11 10:29:19;;;;;;;2.22;1.20;;;7.40;76.00;;;;;;5032441;28;20029;-70
2021/04/11 10:32:18;;;;;;;1.98;1.30;;;7.30;76.00;;;;;;5032737;28;20112;-70
2021/04/11 10:34:55;;;;;;;2.15;1.08;;;7.20;76.50;;;;;;5031130;28;20021;-69
2021/04/11 10:37:29;;;;;;;1.08;0.98;;;7.10;76.90;;;;;;5031137;28;20017;-69
2021/04/11 10:40:28;;;;;;;2.33;1.20;;;7.10;77.10;;;;;;5032569;28;20056;-70
2021/04/11 10:43:13;;;;;;;1.83;1.00;;;7.20;77.20;;;;;;5031139;28;20029;-70
2021/04/11 10:45:57;;;;;;;2.13;1.60;;;7.30;77.10;;;;;;5032422;28;20100;-70
2021/04/11 10:48:41;;;;;;;2.40;1.25;;;7.30;77.10;;;;;;5032476;28;20044;-69
2021/04/11 10:51:28;;;;;;;2.95;0.90;;;7.40;76.70;;;;;;5031159;28;20021;-69
2021/04/11 10:54:17;;;;;;;1.33;1.05;;;7.50;76.40;;;;;;5031250;28;20472;-70
2021/04/11 10:56:53;;;;;;;2.05;0.93;;;7.50;77.20;;;;;;5015917;28;20496;-72
2021/04/11 10:59:49;;;;;;;3.25;1.00;;;7.70;76.30;;;;;;5032369;28;20041;-70
2021/04/11 11:02:52;;;;;;;3.60;1.20;;;7.80;76.30;;;;;;5032349;28;20480;-71
2021/04/11 11:05:32;;;;;;;2.63;1.23;;;7.90;76.00;;;;;;5032361;28;20469;-71
2021/04/11 11:08:23;;;;;;;2.35;0.98;;;7.90;75.70;;;;;;5030941;28;20396;-72
2021/04/11 11:11:18;;;;;;;1.35;0.88;;;7.90;74.60;;;;;;5030789;28;20138;-71
2021/04/11 11:14:06;;;;;;;2.42;0.88;;;8.00;74.70;;;;;;5031088;28;20465;-71
2021/04/11 11:16:53;;;;;;;2.25;0.82;;;7.90;73.50;;;;;;5031275;28;20483;-71
2021/04/11 11:20:09;;;;;;;2.92;1.10;;;7.70;74.00;;;;;;5032351;28;20022;-70
2021/04/11 11:22:56;;;;;;;5.60;1.38;;;7.70;74.00;;;;;;4959517;28;20552;-69
2021/04/11 11:25:42;;;;;;;4.40;1.70;;;7.70;74.20;;;;;;5032012;28;20052;-70
2021/04/11 11:28:30;;;;;;;2.55;1.40;;;7.90;73.60;;;;;;5032177;28;20416;-70
2021/04/11 11:31:24;;;;;;;1.88;1.35;;;8.00;73.60;;;;;;5030850;28;20069;-70
2021/04/11 11:34:21;;;;;;;2.83;1.50;;;8.20;71.80;;;;;;5031861;28;20056;-69
2021/04/11 11:37:00;;;;;;;3.80;1.80;;;8.20;71.60;;;;;;5031588;28;20492;-70
2021/04/11 11:39:45;;;;;;;3.10;1.42;;;8.10;70.80;;;;;;5034362;28;20116;-70
2021/04/11 11:42:30;;;;;;;3.65;1.80;;;8.10;71.50;;;;;;5034719;28;20109;-70
2021/04/11 11:45:09;;;;;;;2.78;1.60;;;8.10;70.10;;;;;;5034128;28;20041;-70
2021/04/11 11:48:05;;;;;;;1.73;0.90;;;8.20;70.80;;;;;;5035548;28;20025;-70
2021/04/11 11:50:36;;;;;;;3.80;0.98;;;8.20;70.40;;;;;;5034063;28;20033;-70
2021/04/11 11:53:15;;;;;;;0.95;0.60;;;8.30;70.50;;;;;;5033979;28;20464;-70
2021/04/11 11:56:01;;;;;;;2.25;0.95;;;8.40;70.90;;;;;;5035199;28;20112;-70
2021/04/11 11:58:38;;;;;;;2.28;0.90;;;8.40;70.70;;;;;;5033890;28;20400;-70
2021/04/11 12:01:31;;;;;;;4.70;1.00;;;8.40;70.40;;;;;;5033526;28;20021;-70
2021/04/11 12:04:34;;;;;;;2.83;0.82;;;8.40;70.40;;;;;;5035151;28;20073;-69
2021/04/11 12:07:06;;;;;;;3.25;1.20;;;8.40;69.60;;;;;;5021960;28;20045;-70
2021/04/11 12:09:41;;;;;;;1.25;0.80;;;8.40;69.90;;;;;;5033604;28;20041;-70
2021/04/11 12:12:24;;;;;;;1.65;1.10;;;8.40;69.80;;;;;;5034952;28;20105;-70
2021/04/11 12:15:02;;;;;;;3.40;1.00;;;8.50;69.60;;;;;;5034937;28;20032;-70
2021/04/11 12:17:34;;;;;;;2.78;0.80;;;8.40;69.20;;;;;;5033636;28;20036;-70
2021/04/11 12:20:09;;;;;;;1.65;0.80;;;8.40;69.40;;;;;;5035066;28;20392;-69
2021/04/11 12:23:03;;;;;;;1.58;0.88;;;8.30;68.90;;;;;;5034762;28;20444;-69
2021/04/11 12:25:32;;;;;;;2.13;1.00;;;8.30;69.20;;;;;;5034641;28;20049;-69
2021/04/11 12:28:17;;;;;;;2.92;0.98;;;8.30;69.00;;;;;;5032974;28;20361;-69
2021/04/11 12:30:44;;;;;;;2.22;1.00;;;8.30;69.30;;;;;;5034529;28;20034;-69
2021/04/11 12:33:41;;;;;;;4.97;1.23;;;8.20;68.60;;;;;;5034580;28;20095;-69
2021/04/11 12:36:11;;;;;;;2.75;0.88;;;8.10;68.80;;;;;;5034410;28;20013;-69
2021/04/11 12:38:50;;;;;;;1.48;0.82;;;8.10;69.20;;;;;;5034522;28;20136;-70
2021/04/11 12:41:34;;;;;;;2.92;1.02;;;8.00;69.30;;;;;;5032911;28;20083;-69
2021/04/11 12:44:06;;;;;;;1.85;0.90;;;8.10;69.70;;;;;;5034441;28;20052;-70
2021/04/11 12:47:09;;;;;;;1.73;0.70;;;8.20;69.10;;;;;;5034568;28;20345;-70
2021/04/11 12:49:55;;;;;;;1.85;0.70;;;8.20;69.00;;;;;;5033219;28;20476;-70
2021/04/11 12:52:39;;;;;;;1.20;0.75;;;8.30;68.60;;;;;;5034340;28;20427;-70
2021/04/11 12:55:20;;;;;;;1.48;0.70;;;8.20;68.30;;;;;;5034049;28;20041;-70
2021/04/11 12:57:57;;;;;;;2.00;0.80;;;8.20;68.30;;;;;;5034161;28;20033;-70
2021/04/11 13:00:30;;;;;;;1.38;0.52;;;8.20;68.50;;;;;;5032562;28;20017;-69
2021/04/11 13:03:01;;;;;;;1.05;0.70;;;8.30;69.00;;;;;;5032457;28;20330;-70
2021/04/11 13:05:50;;;;;;;1.92;0.85;;;8.40;68.10;;;;;;5033590;28;20384;-70
2021/04/11 13:08:57;;;;;;;2.67;0.80;;;8.50;67.90;;;;;;5033673;28;20032;-70
2021/04/11 13:11:36;;;;;;;2.03;0.65;;;8.60;67.50;;;;;;5033225;28;20049;-70
2021/04/11 13:14:07;;;;;;;1.25;0.65;;;8.60;67.10;;;;;;5033695;28;20387;-70
2021/04/11 13:16:38;;;;;;;3.20;0.60;;;8.70;67.20;;;;;;5032685;28;20099;-70
2021/04/11 13:19:18;;;;;;;1.42;0.63;;;8.70;66.80;;;;;;5032036;28;20083;-70
2021/04/11 13:22:13;;;;;;;1.35;0.70;;;8.80;66.60;;;;;;5032081;28;20380;-70
2021/04/11 13:25:10;;;;;;;2.50;1.20;;;8.90;66.60;;;;;;5029103;28;20364;-70
2021/04/11 13:27:38;;;;;;;2.25;0.77;;;9.00;66.10;;;;;;5033381;28;20059;-69
2021/04/11 13:30:16;;;;;;;1.83;0.60;;;9.00;65.10;;;;;;5031807;28;20052;-70
2021/04/11 13:33:00;;;;;;;2.58;0.80;;;9.10;65.00;;;;;;5033512;28;20056;-70
2021/04/11 13:35:38;;;;;;;1.90;0.70;;;9.20;64.90;;;;;;5031923;28;20029;-70
2021/04/11 13:38:07;;;;;;;1.17;0.40;;;9.30;64.70;;;;;;5033220;28;20026;-70
2021/04/11 13:40:35;;;;;;;1.65;0.50;;;9.30;64.60;;;;;;5031775;28;20038;-70
2021/04/11 13:43:22;;;;;;;2.00;0.60;;;9.40;63.60;;;;;;5033055;28;20450;-70
2021/04/11 13:45:51;;;;;;;1.83;0.70;;;9.40;63.50;;;;;;5033053;28;20037;-69
2021/04/11 13:48:25;;;;;;;1.15;0.50;;;9.40;63.80;;;;;;5031797;28;20178;-69
2021/04/11 13:51:14;;;;;;;0.55;0.43;;;9.40;64.30;;;;;;5033039;28;20048;-70
2021/04/11 13:54:11;;;;;;;2.20;0.80;;;9.20;62.50;;;;;;5031595;28;20034;-70
2021/04/11 13:57:10;;;;;;;1.88;0.70;;;9.10;61.90;;;;;;5031761;28;20439;-70
2021/04/11 13:59:50;;;;;;;2.35;0.70;;;8.90;62.80;;;;;;5031505;28;20349;-69
2021/04/11 14:02:33;;;;;;;0.65;0.40;;;8.80;63.20;;;;;;5031598;28;20029;-69